createdAt,value
2022-09-21T00:01:25.733Z,84.33
2022-09-21T00:03:54.920Z,84.86
2022-09-21T00:06:23.441Z,83.52
2022-09-21T00:08:52.719Z,83.89
2022-09-21T00:11:23.035Z,84.61
2022-09-21T00:13:53.258Z,84.86
2022-09-21T00:16:20.621Z,84.40
2022-09-21T00:18:48.566Z,85.79
2022-09-21T00:21:17.023Z,85.89
2022-09-21T00:23:47.083Z,85.04
2022-09-21T00:26:17.951Z,85.15
2022-09-21T00:28:45.683Z,84.04
2022-09-21T00:31:18.213Z,83.19
2022-09-21T00:33:47.185Z,84.92
2022-09-21T00:36:19.046Z,85.39
2022-09-21T00:38:54.451Z,84.76
2022-09-21T00:41:21.815Z,84.34
2022-09-21T00:44:09.888Z,84.74
2022-09-21T00:46:40.758Z,85.19
2022-09-21T00:49:08.656Z,85.14
2022-09-21T00:51:39.633Z,85.04
2022-09-21T00:54:18.109Z,84.73
2022-09-21T00:56:45.692Z,85.55
2022-09-21T00:59:14.040Z,85.92
2022-09-21T01:01:44.199Z,86.24
2022-09-21T01:04:12.036Z,86.35
2022-09-21T01:06:41.892Z,86.31
2022-09-21T01:09:11.607Z,86.27
2022-09-21T01:11:46.567Z,86.81
2022-09-21T01:14:31.643Z,86.53
2022-09-21T01:17:26.670Z,86.49
2022-09-21T01:20:08.774Z,86.11
2022-09-21T01:23:00.168Z,86.27
2022-09-21T01:26:02.251Z,86.33
2022-09-21T01:29:04.269Z,85.74
2022-09-21T01:31:51.627Z,85.17
2022-09-21T01:34:28.631Z,86.11
2022-09-21T01:36:59.135Z,86.56
2022-09-21T01:39:27.533Z,86.87
2022-09-21T01:41:58.874Z,85.99
2022-09-21T01:44:30.488Z,86.12
2022-09-21T01:47:02.793Z,86.45
2022-09-21T01:49:53.257Z,86.36
2022-09-21T01:52:37.920Z,86.22
2022-09-21T01:55:30.250Z,85.79
2022-09-21T01:58:03.208Z,86.24
2022-09-21T02:00:34.630Z,87.03
2022-09-21T02:03:29.578Z,87.10
2022-09-21T02:06:02.721Z,87.71
2022-09-21T02:08:35.174Z,87.25
2022-09-21T02:11:03.167Z,88.01
2022-09-21T02:13:38.926Z,87.32
2022-09-21T02:16:05.555Z,86.91
2022-09-21T02:19:00.014Z,85.72
2022-09-21T02:21:41.859Z,85.25
2022-09-21T02:24:23.797Z,86.46
2022-09-21T02:27:23.022Z,88.31
2022-09-21T02:30:06.178Z,88.12
2022-09-21T02:33:13.105Z,88.45
2022-09-21T02:35:58.313Z,87.91
2022-09-21T02:38:47.827Z,87.51
2022-09-21T02:41:20.054Z,86.92
2022-09-21T02:44:04.734Z,86.80
2022-09-21T02:46:53.722Z,87.76
2022-09-21T02:49:30.439Z,87.94
2022-09-21T02:52:05.483Z,86.87
2022-09-21T02:54:33.988Z,87.28
2022-09-21T02:57:06.635Z,87.57
2022-09-21T02:59:33.716Z,88.08
2022-09-21T03:02:03.999Z,88.49
2022-09-21T03:04:33.574Z,88.96
2022-09-21T03:07:00.260Z,87.87
2022-09-21T03:09:26.878Z,87.27
2022-09-21T03:11:56.496Z,88.13
2022-09-21T03:14:25.755Z,88.54
2022-09-21T03:16:52.516Z,86.18
2022-09-21T03:19:22.031Z,85.94
2022-09-21T03:21:48.753Z,87.18
2022-09-21T03:24:35.391Z,88.29
2022-09-21T03:27:07.268Z,87.41
2022-09-21T03:29:33.943Z,87.91
2022-09-21T03:32:02.719Z,88.06
2022-09-21T03:34:34.425Z,88.37
2022-09-21T03:37:06.211Z,87.90
2022-09-21T03:39:32.875Z,88.42
2022-09-21T03:42:08.344Z,89.12
2022-09-21T03:44:35.354Z,88.06
2022-09-21T03:47:02.069Z,87.49
2022-09-21T03:49:29.320Z,86.17
2022-09-21T03:51:57.248Z,86.30
2022-09-21T03:54:24.397Z,86.96
2022-09-21T03:56:51.036Z,88.34
2022-09-21T03:59:17.737Z,88.45
2022-09-21T04:01:46.720Z,89.52
2022-09-21T04:04:13.363Z,88.94
2022-09-21T04:06:41.301Z,88.33
2022-09-21T04:09:08.165Z,88.78
2022-09-21T04:11:37.027Z,88.16
2022-09-21T04:14:03.951Z,87.28
2022-09-21T04:16:30.586Z,87.94
2022-09-21T04:18:57.397Z,88.33
2022-09-21T04:21:26.803Z,88.15
2022-09-21T04:23:56.576Z,88.29
2022-09-21T04:26:34.985Z,88.36
2022-09-21T04:29:02.323Z,88.86
2022-09-21T04:31:30.306Z,87.59
2022-09-21T04:34:00.826Z,87.73
2022-09-21T04:36:33.160Z,86.87
2022-09-21T04:39:07.862Z,85.94
2022-09-21T04:41:42.125Z,86.89
2022-09-21T04:44:08.834Z,87.92
2022-09-21T04:46:35.639Z,88.08
2022-09-21T04:49:04.954Z,88.23
2022-09-21T04:51:34.556Z,88.12
2022-09-21T04:54:03.500Z,88.52
2022-09-21T04:56:30.429Z,88.88
2022-09-21T04:59:00.009Z,88.34
2022-09-21T05:01:26.696Z,87.68
2022-09-21T05:03:53.329Z,89.05
2022-09-21T05:06:22.781Z,88.59
2022-09-21T05:09:10.590Z,89.12
2022-09-21T05:11:37.378Z,89.50
2022-09-21T05:14:09.863Z,89.37
2022-09-21T05:16:39.308Z,89.08
2022-09-21T05:19:08.416Z,89.07
2022-09-21T05:21:36.519Z,89.07
2022-09-21T05:24:09.820Z,89.54
2022-09-21T05:26:41.888Z,89.63
2022-09-21T05:29:11.644Z,89.78
2022-09-21T05:31:47.130Z,89.75
2022-09-21T05:34:32.998Z,89.58
2022-09-21T05:37:15.273Z,89.93
2022-09-21T05:39:44.791Z,89.96
2022-09-21T05:42:13.910Z,90.58
2022-09-21T05:44:40.937Z,90.75
2022-09-21T05:47:35.487Z,90.93
2022-09-21T05:50:28.215Z,90.93
2022-09-21T05:53:00.447Z,90.27
2022-09-21T05:55:33.389Z,89.99
2022-09-21T05:58:22.868Z,90.04
2022-09-21T06:01:15.270Z,89.77
2022-09-21T06:03:43.308Z,90.14
2022-09-21T06:06:13.401Z,90.44
2022-09-21T06:08:40.034Z,90.29
2022-09-21T06:11:10.091Z,90.47
2022-09-21T06:13:37.553Z,90.46
2022-09-21T06:16:07.355Z,90.53
2022-09-21T06:18:39.301Z,91.54
2022-09-21T06:21:14.654Z,91.49
2022-09-21T06:23:41.488Z,90.95
2022-09-21T06:26:08.248Z,90.89
2022-09-21T06:28:34.852Z,90.90
2022-09-21T06:31:04.311Z,90.59
2022-09-21T06:33:30.985Z,90.50
2022-09-21T06:36:03.574Z,91.27
2022-09-21T06:38:30.519Z,91.31
2022-09-21T06:41:05.542Z,91.30
2022-09-21T06:43:33.936Z,91.50
2022-09-21T06:46:02.282Z,91.64
2022-09-21T06:48:32.756Z,91.79
2022-09-21T06:51:00.990Z,91.57
2022-09-21T06:53:31.425Z,91.24
2022-09-21T06:56:09.005Z,91.78
2022-09-21T06:58:37.838Z,91.51
2022-09-21T07:01:09.898Z,90.77
2022-09-21T07:03:37.267Z,91.43
2022-09-21T07:06:07.369Z,91.40
2022-09-21T07:11:24.194Z,91.24
2022-09-21T07:13:53.859Z,90.60
2022-09-21T07:16:21.723Z,91.05
2022-09-21T07:18:49.083Z,90.14
2022-09-21T07:21:18.508Z,90.08
2022-09-21T07:23:49.821Z,89.47
2022-09-21T07:26:20.004Z,88.76
2022-09-21T07:28:46.629Z,88.98
2022-09-21T07:31:17.913Z,88.22
2022-09-21T07:33:48.399Z,88.04
2022-09-21T07:36:19.890Z,87.39
2022-09-21T07:38:46.508Z,87.21
2022-09-21T07:41:14.359Z,86.67
2022-09-21T07:43:44.838Z,86.48
2022-09-21T07:46:14.656Z,86.26
2022-09-21T07:48:42.740Z,86.34
2022-09-21T07:51:14.376Z,85.08
2022-09-21T07:53:49.748Z,84.32
2022-09-21T07:56:20.164Z,83.71
2022-09-21T07:59:05.346Z,84.00
2022-09-21T08:01:36.199Z,84.17
2022-09-21T08:04:07.376Z,83.71
2022-09-21T08:06:36.138Z,83.25
2022-09-21T08:09:04.182Z,83.05
2022-09-21T08:11:31.625Z,82.56
2022-09-21T08:14:00.826Z,81.72
2022-09-21T08:16:29.242Z,81.55
2022-09-21T08:18:56.127Z,77.09
2022-09-21T08:21:25.438Z,77.95
2022-09-21T08:23:54.478Z,77.86
2022-09-21T08:26:21.425Z,76.24
2022-09-21T08:28:51.640Z,75.25
2022-09-21T08:31:21.047Z,74.90
2022-09-21T08:33:49.983Z,74.03
2022-09-21T08:36:18.723Z,73.82
2022-09-21T08:38:45.667Z,73.44
2022-09-21T08:41:46.343Z,71.66
2022-09-21T08:44:31.327Z,70.97
2022-09-21T08:47:17.442Z,69.57
2022-09-21T08:49:54.005Z,71.13
2022-09-21T08:52:24.994Z,70.38
2022-09-21T08:54:56.909Z,69.38
2022-09-21T08:57:29.547Z,69.61
2022-09-21T08:59:59.721Z,69.52
2022-09-21T09:02:39.266Z,68.29
2022-09-21T09:05:33.024Z,67.98
2022-09-21T09:08:19.541Z,67.80
2022-09-21T09:11:20.669Z,66.91
2022-09-21T09:14:05.831Z,66.13
2022-09-21T09:17:02.754Z,63.14
2022-09-21T09:19:55.415Z,63.38
2022-09-21T09:22:40.438Z,62.93
2022-09-21T09:25:19.219Z,62.12
2022-09-21T09:27:50.689Z,61.75
2022-09-21T09:30:33.568Z,61.34
2022-09-21T09:33:24.313Z,62.25
2022-09-21T09:36:07.000Z,61.00
2022-09-21T09:38:39.732Z,61.65
2022-09-21T09:41:35.144Z,61.30
2022-09-21T09:44:07.876Z,61.23
2022-09-21T09:47:09.971Z,60.49
2022-09-21T09:49:58.409Z,59.54
2022-09-21T09:52:26.005Z,58.79
2022-09-21T09:54:54.831Z,58.17
2022-09-21T09:57:31.210Z,56.86
2022-09-21T10:00:09.049Z,54.97
2022-09-21T10:02:46.653Z,56.56
2022-09-21T10:05:22.673Z,56.26
2022-09-21T10:07:50.463Z,56.86
2022-09-21T10:10:29.261Z,54.30
2022-09-21T10:13:07.347Z,55.87
2022-09-21T10:15:34.062Z,53.93
2022-09-21T10:18:21.442Z,52.00
2022-09-21T10:21:20.750Z,52.44
2022-09-21T10:23:53.026Z,52.70
2022-09-21T10:26:20.598Z,52.60
2022-09-21T10:29:22.274Z,53.08
2022-09-21T10:32:04.242Z,52.02
2022-09-21T10:34:33.156Z,52.84
2022-09-21T10:37:22.712Z,52.26
2022-09-21T10:39:49.382Z,51.67
2022-09-21T10:42:18.855Z,49.09
2022-09-21T10:45:16.322Z,50.60
2022-09-21T10:47:44.262Z,52.19
2022-09-21T10:50:35.069Z,51.37
2022-09-21T10:53:15.020Z,52.02
2022-09-21T10:56:11.958Z,50.09
2022-09-21T10:59:20.487Z,51.27
2022-09-21T11:01:52.376Z,49.15
2022-09-21T11:04:37.215Z,50.03
2022-09-21T11:07:39.838Z,50.23
2022-09-21T11:10:37.508Z,50.49
2022-09-21T11:13:34.932Z,49.61
2022-09-21T11:16:14.234Z,48.66
2022-09-21T11:18:49.829Z,45.96
2022-09-21T11:21:38.313Z,47.04
2022-09-21T11:24:23.943Z,47.61
2022-09-21T11:27:04.046Z,47.92
2022-09-21T11:29:48.228Z,48.84
2022-09-21T11:32:28.094Z,46.19
2022-09-21T11:35:35.669Z,47.11
2022-09-21T11:38:34.617Z,47.24
2022-09-21T11:41:26.047Z,49.34
2022-09-21T11:44:04.916Z,45.76
2022-09-21T11:46:42.682Z,46.39
2022-09-21T11:49:43.057Z,46.36
2022-09-21T11:52:09.802Z,47.18
2022-09-21T11:54:42.370Z,46.82
2022-09-21T11:57:28.803Z,48.97
2022-09-21T12:00:26.770Z,46.58
2022-09-21T12:03:05.274Z,44.97
2022-09-21T12:05:37.134Z,45.37
2022-09-21T12:08:46.899Z,47.35
2022-09-21T12:11:28.676Z,44.78
2022-09-21T12:14:22.579Z,46.67
2022-09-21T12:17:24.815Z,46.94
2022-09-21T12:20:11.970Z,44.61
2022-09-21T12:22:45.025Z,45.97
2022-09-21T12:25:17.322Z,45.32
2022-09-21T12:27:54.801Z,44.51
2022-09-21T12:30:24.202Z,44.44
2022-09-21T12:33:19.377Z,43.00
2022-09-21T12:36:18.617Z,45.25
2022-09-21T12:39:07.985Z,46.15
2022-09-21T12:41:53.901Z,46.73
2022-09-21T12:44:52.309Z,46.55
2022-09-21T12:47:28.952Z,44.87
2022-09-21T12:49:59.887Z,45.31
2022-09-21T12:52:28.148Z,46.65
2022-09-21T12:55:14.397Z,46.43
2022-09-21T12:58:16.884Z,43.79
2022-09-21T13:01:06.127Z,43.80
2022-09-21T13:03:44.098Z,45.46
2022-09-21T13:06:38.253Z,45.89
2022-09-21T13:09:12.703Z,43.67
2022-09-21T13:11:56.646Z,44.90
2022-09-21T13:14:34.869Z,45.04
2022-09-21T13:17:07.485Z,44.32
2022-09-21T13:19:35.712Z,44.90
2022-09-21T13:22:24.226Z,43.27
2022-09-21T13:25:22.136Z,43.57
2022-09-21T13:28:24.222Z,42.78
2022-09-21T13:31:39.482Z,43.99
2022-09-21T13:34:22.428Z,43.34
2022-09-21T13:37:17.100Z,42.89
2022-09-21T13:40:17.113Z,43.67
2022-09-21T13:42:52.676Z,43.11
2022-09-21T13:45:19.420Z,45.04
2022-09-21T13:47:49.125Z,44.34
2022-09-21T13:50:31.740Z,45.05
2022-09-21T13:53:02.783Z,46.08
2022-09-21T13:55:35.947Z,45.36
2022-09-21T13:58:20.321Z,45.14
2022-09-21T14:00:54.277Z,46.12
2022-09-21T14:03:32.494Z,45.54
2022-09-21T14:06:17.968Z,43.87
2022-09-21T14:09:00.065Z,44.23
2022-09-21T14:11:34.655Z,46.39
2022-09-21T14:14:19.154Z,44.97
2022-09-21T14:16:58.835Z,44.81
2022-09-21T14:19:30.565Z,45.91
2022-09-21T14:22:10.768Z,45.72
2022-09-21T14:24:51.172Z,47.82
2022-09-21T14:27:28.184Z,45.50
2022-09-21T14:30:19.862Z,45.84
2022-09-21T14:33:02.305Z,47.17
2022-09-21T14:35:37.579Z,44.92
2022-09-21T14:38:13.873Z,45.40
2022-09-21T14:40:48.373Z,44.95
2022-09-21T14:43:20.662Z,44.59
2022-09-21T14:46:19.312Z,46.14
2022-09-21T14:49:23.065Z,46.77
2022-09-21T14:52:27.663Z,49.90
2022-09-21T14:55:19.748Z,46.34
2022-09-21T14:58:11.668Z,45.49
2022-09-21T15:00:42.791Z,45.43
2022-09-21T15:03:39.172Z,45.35
2022-09-21T15:06:56.702Z,47.05
2022-09-21T15:10:21.392Z,45.73
2022-09-21T15:12:57.976Z,46.07
2022-09-21T15:15:53.075Z,45.22
2022-09-21T15:18:23.004Z,46.44
2022-09-21T15:21:01.657Z,47.51
2022-09-21T15:23:32.087Z,47.82
2022-09-21T15:26:08.652Z,46.76
2022-09-21T15:29:05.011Z,46.88
2022-09-21T15:31:25.259Z,48.53
2022-09-21T15:33:53.300Z,47.18
2022-09-21T15:36:21.573Z,48.51
2022-09-21T15:38:50.671Z,48.27
2022-09-21T15:41:41.023Z,46.55
2022-09-21T15:44:17.300Z,48.68
2022-09-21T15:46:48.116Z,48.45
2022-09-21T15:49:17.824Z,48.03
2022-09-21T15:51:46.051Z,46.56
2022-09-21T15:54:25.420Z,48.35
2022-09-21T15:56:52.128Z,48.95
2022-09-21T15:59:22.156Z,47.93
2022-09-21T16:01:52.801Z,48.61
2022-09-21T16:04:22.232Z,49.43
2022-09-21T16:07:07.098Z,47.90
2022-09-21T16:09:39.759Z,49.05
2022-09-21T16:12:35.999Z,49.25
2022-09-21T16:15:07.952Z,49.44
2022-09-21T16:17:52.563Z,47.97
2022-09-21T16:20:23.293Z,48.85
2022-09-21T16:22:54.729Z,48.57
2022-09-21T16:25:21.539Z,49.23
2022-09-21T16:28:00.451Z,49.31
2022-09-21T16:30:44.675Z,49.25
2022-09-21T16:33:40.959Z,49.46
2022-09-21T16:36:32.411Z,49.67
2022-09-21T16:39:00.310Z,50.75
2022-09-21T16:41:35.032Z,51.40
2022-09-21T16:44:02.775Z,50.52
2022-09-21T16:46:31.710Z,51.51
2022-09-21T16:48:59.161Z,51.81
2022-09-21T16:51:27.258Z,51.63
2022-09-21T16:53:55.176Z,53.38
2022-09-21T16:56:21.572Z,52.20
2022-09-21T16:58:47.990Z,52.76
2022-09-21T17:01:21.844Z,52.81
2022-09-21T17:03:48.340Z,52.53
2022-09-21T17:06:20.748Z,53.77
2022-09-21T17:08:48.624Z,53.72
2022-09-21T17:11:23.035Z,54.21
2022-09-21T17:13:50.531Z,54.99
2022-09-21T17:16:19.098Z,55.28
2022-09-21T17:18:47.147Z,55.27
2022-09-21T17:21:14.516Z,55.50
2022-09-21T17:23:45.328Z,57.39
2022-09-21T17:26:17.617Z,58.85
2022-09-21T17:28:44.422Z,59.10
2022-09-21T17:31:18.953Z,58.70
2022-09-21T17:33:47.750Z,60.96
2022-09-21T17:36:15.938Z,60.88
2022-09-21T17:38:43.292Z,62.13
2022-09-21T17:41:43.638Z,62.75
2022-09-21T17:44:17.254Z,63.99
2022-09-21T17:46:59.335Z,64.72
2022-09-21T17:49:26.272Z,65.48
2022-09-21T17:52:11.247Z,65.57
2022-09-21T17:54:39.826Z,66.35
2022-09-21T17:57:22.855Z,67.46
2022-09-21T17:59:59.627Z,67.41
2022-09-21T18:02:26.418Z,66.93
2022-09-21T18:05:00.626Z,68.10
2022-09-21T18:07:27.381Z,69.27
2022-09-21T18:09:54.411Z,67.79
2022-09-21T18:12:48.874Z,68.56
2022-09-21T18:15:15.658Z,69.46
2022-09-21T18:18:12.624Z,68.48
2022-09-21T18:21:04.515Z,69.60
2022-09-21T18:23:56.498Z,69.52
2022-09-21T18:26:23.427Z,69.57
2022-09-21T18:28:56.941Z,69.98
2022-09-21T18:31:47.947Z,69.95
2022-09-21T18:34:29.117Z,71.07
2022-09-21T18:37:12.537Z,70.86
2022-09-21T18:40:02.460Z,71.57
2022-09-21T18:42:57.684Z,71.07
2022-09-21T18:45:28.752Z,69.81
2022-09-21T18:48:13.590Z,72.22
2022-09-21T18:50:55.034Z,71.55
2022-09-21T18:53:34.619Z,71.98
2022-09-21T18:56:01.327Z,72.32
2022-09-21T18:58:30.038Z,72.55
2022-09-21T19:00:56.993Z,72.67
2022-09-21T19:03:23.859Z,72.52
2022-09-21T19:06:26.320Z,71.59
2022-09-21T19:09:06.702Z,72.13
2022-09-21T19:11:53.479Z,72.28
2022-09-21T19:14:33.815Z,72.36
2022-09-21T19:17:23.405Z,72.61
2022-09-21T19:20:05.041Z,72.43
2022-09-21T19:23:00.505Z,72.41
2022-09-21T19:25:40.098Z,72.10
2022-09-21T19:28:28.789Z,72.77
2022-09-21T19:31:02.746Z,72.75
2022-09-21T19:33:49.628Z,72.81
2022-09-21T19:36:19.180Z,73.54
2022-09-21T19:38:45.853Z,72.64
2022-09-21T19:41:42.912Z,73.31
2022-09-21T19:44:16.352Z,73.16
2022-09-21T19:47:12.111Z,73.88
2022-09-21T19:49:55.074Z,74.86
2022-09-21T19:52:32.226Z,74.35
2022-09-21T19:55:17.945Z,73.22
2022-09-21T19:58:03.288Z,73.31
2022-09-21T20:00:32.005Z,74.11
2022-09-21T20:02:58.412Z,74.21
2022-09-21T20:05:32.667Z,74.02
2022-09-21T20:08:25.147Z,73.41
2022-09-21T20:11:15.922Z,74.26
2022-09-21T20:14:12.665Z,73.54
2022-09-21T20:16:55.033Z,73.70
2022-09-21T20:19:46.327Z,74.43
2022-09-21T20:22:18.162Z,74.06
2022-09-21T20:24:53.568Z,74.19
2022-09-21T20:27:34.924Z,73.71
2022-09-21T20:30:05.174Z,72.98
2022-09-21T20:32:33.094Z,74.28
2022-09-21T20:35:00.553Z,73.13
2022-09-21T20:37:30.169Z,73.94
2022-09-21T20:39:56.549Z,73.37
2022-09-21T20:42:24.769Z,73.83
2022-09-21T20:44:51.648Z,74.87
2022-09-21T20:47:21.460Z,74.43
2022-09-21T20:49:48.753Z,73.58
2022-09-21T20:52:17.312Z,74.69
2022-09-21T20:54:48.988Z,75.58
2022-09-21T20:57:16.771Z,75.93
2022-09-21T20:59:43.469Z,76.28
2022-09-21T21:02:11.544Z,76.21
2022-09-21T21:04:37.985Z,76.33
2022-09-21T21:07:04.421Z,75.74
2022-09-21T21:09:30.953Z,75.62
2022-09-21T21:11:57.385Z,75.04
2022-09-21T21:14:23.883Z,76.34
2022-09-21T21:16:50.278Z,77.21
2022-09-21T21:19:17.559Z,77.05
2022-09-21T21:21:44.823Z,77.11
2022-09-21T21:24:29.962Z,77.33
2022-09-21T21:27:02.237Z,75.90
2022-09-21T21:29:30.085Z,76.29
2022-09-21T21:31:56.539Z,77.79
2022-09-21T21:34:23.197Z,77.65
2022-09-21T21:36:49.592Z,78.12
2022-09-21T21:39:16.052Z,77.33
2022-09-21T21:41:44.574Z,76.99
2022-09-21T21:44:11.568Z,78.12
2022-09-21T21:46:38.294Z,78.15
2022-09-21T21:49:07.098Z,78.52
2022-09-21T21:51:33.762Z,78.54
2022-09-21T21:54:00.390Z,78.92
2022-09-21T21:56:26.845Z,78.81
2022-09-21T21:58:54.227Z,79.30
2022-09-21T22:01:26.683Z,79.32
2022-09-21T22:04:02.743Z,79.58
2022-09-21T22:06:30.965Z,79.95
2022-09-21T22:08:57.713Z,80.21
2022-09-21T22:11:26.699Z,80.00
2022-09-21T22:13:54.940Z,79.83
2022-09-21T22:16:24.155Z,79.88
2022-09-21T22:18:52.151Z,80.05
2022-09-21T22:21:24.732Z,80.01
2022-09-21T22:23:57.781Z,81.42
2022-09-21T22:26:25.892Z,80.79
2022-09-21T22:28:58.367Z,81.55
2022-09-21T22:31:32.668Z,81.09
2022-09-21T22:33:59.891Z,81.66
2022-09-21T22:36:29.540Z,80.99
2022-09-21T22:38:56.860Z,80.98
2022-09-21T22:41:26.251Z,80.78
2022-09-21T22:43:54.293Z,81.36
2022-09-21T22:46:21.624Z,81.75
2022-09-21T22:48:48.232Z,82.28
2022-09-21T22:51:16.104Z,82.15
2022-09-21T22:53:43.286Z,82.38
2022-09-21T22:56:21.680Z,82.55
2022-09-21T22:58:50.816Z,82.38
2022-09-21T23:01:18.756Z,82.10
2022-09-21T23:03:47.669Z,82.19
2022-09-21T23:06:18.474Z,82.44
2022-09-21T23:08:50.180Z,82.06
2022-09-21T23:11:31.875Z,81.62
2022-09-21T23:13:59.647Z,81.58
2022-09-21T23:16:27.859Z,82.04
2022-09-21T23:18:54.375Z,81.08
2022-09-21T23:21:23.564Z,81.96
2022-09-21T23:23:54.692Z,81.13
2022-09-21T23:26:22.691Z,82.27
2022-09-21T23:28:55.442Z,82.60
2022-09-21T23:31:22.982Z,82.39
2022-09-21T23:33:52.149Z,82.79
2022-09-21T23:36:22.069Z,82.90
2022-09-21T23:38:50.157Z,82.58
2022-09-21T23:41:22.633Z,82.79
2022-09-21T23:43:49.518Z,82.45
2022-09-21T23:46:18.767Z,83.76
2022-09-21T23:48:45.963Z,83.81
2022-09-21T23:51:13.061Z,83.26
2022-09-21T23:53:40.076Z,83.54
2022-09-21T23:56:11.391Z,83.69
2022-09-21T23:58:37.761Z,83.05
